createdAt,value
2022-08-26T00:01:36.422Z,79.08
2022-08-26T00:04:03.896Z,79.39
2022-08-26T00:06:32.424Z,79.13
2022-08-26T00:08:59.257Z,80.05
2022-08-26T00:11:27.221Z,79.99
2022-08-26T00:13:55.607Z,80.39
2022-08-26T00:16:24.942Z,80.37
2022-08-26T00:18:53.086Z,79.90
2022-08-26T00:21:20.815Z,80.12
2022-08-26T00:23:48.107Z,80.43
2022-08-26T00:26:15.035Z,80.63
2022-08-26T00:28:41.555Z,80.44
2022-08-26T00:31:11.127Z,79.84
2022-08-26T00:33:38.979Z,79.25
2022-08-26T00:36:06.381Z,78.83
2022-08-26T00:38:35.056Z,80.18
2022-08-26T00:41:05.186Z,79.86
2022-08-26T00:43:47.593Z,80.46
2022-08-26T00:46:18.467Z,80.08
2022-08-26T00:48:49.324Z,80.78
2022-08-26T00:51:19.680Z,80.94
2022-08-26T00:53:52.009Z,79.98
2022-08-26T00:56:26.788Z,80.33
2022-08-26T00:58:53.743Z,81.24
2022-08-26T01:01:23.141Z,81.42
2022-08-26T01:03:50.154Z,82.12
2022-08-26T01:06:16.652Z,81.26
2022-08-26T01:08:43.553Z,80.22
2022-08-26T01:11:11.797Z,81.60
2022-08-26T01:13:39.679Z,81.85
2022-08-26T01:16:10.595Z,82.21
2022-08-26T01:18:39.581Z,81.24
2022-08-26T01:21:36.303Z,79.91
2022-08-26T01:24:07.552Z,82.23
2022-08-26T01:26:43.192Z,81.07
2022-08-26T01:29:15.800Z,81.18
2022-08-26T01:31:45.852Z,82.29
2022-08-26T01:34:38.945Z,82.18
2022-08-26T01:37:15.822Z,83.17
2022-08-26T01:39:45.061Z,82.96
2022-08-26T01:42:14.562Z,82.71
2022-08-26T01:44:49.057Z,82.44
2022-08-26T01:47:18.031Z,81.30
2022-08-26T01:49:47.017Z,81.17
2022-08-26T01:52:20.485Z,82.00
2022-08-26T01:54:50.530Z,80.34
2022-08-26T01:57:20.195Z,78.97
2022-08-26T01:59:49.143Z,78.13
2022-08-26T02:02:15.804Z,78.59
2022-08-26T02:04:58.129Z,78.98
2022-08-26T02:07:26.771Z,80.88
2022-08-26T02:09:54.649Z,80.98
2022-08-26T02:12:21.605Z,81.39
2022-08-26T02:14:53.243Z,81.75
2022-08-26T02:17:34.947Z,81.01
2022-08-26T02:20:02.479Z,81.50
2022-08-26T02:22:30.797Z,81.61
2022-08-26T02:25:00.243Z,82.23
2022-08-26T02:27:33.510Z,81.75
2022-08-26T02:30:11.460Z,81.96
2022-08-26T02:32:38.436Z,82.69
2022-08-26T02:35:08.126Z,82.83
2022-08-26T02:37:35.213Z,83.55
2022-08-26T02:40:03.218Z,82.91
2022-08-26T02:42:29.813Z,83.13
2022-08-26T02:44:56.276Z,83.61
2022-08-26T02:47:24.891Z,82.69
2022-08-26T02:49:51.860Z,82.96
2022-08-26T02:52:18.644Z,83.00
2022-08-26T02:54:45.464Z,83.17
2022-08-26T02:57:12.087Z,83.25
2022-08-26T02:59:41.762Z,83.33
2022-08-26T03:02:10.531Z,82.99
2022-08-26T03:04:38.976Z,82.65
2022-08-26T03:07:06.562Z,82.73
2022-08-26T03:09:33.366Z,82.37
2022-08-26T03:12:00.259Z,81.36
2022-08-26T03:14:27.180Z,81.81
2022-08-26T03:16:54.712Z,81.34
2022-08-26T03:19:23.776Z,83.01
2022-08-26T03:21:51.760Z,82.65
2022-08-26T03:24:19.250Z,82.77
2022-08-26T03:26:52.087Z,83.70
2022-08-26T03:29:38.577Z,84.01
2022-08-26T03:32:06.167Z,84.47
2022-08-26T03:34:32.969Z,84.85
2022-08-26T03:36:59.437Z,84.55
2022-08-26T03:39:26.299Z,84.62
2022-08-26T03:41:53.700Z,83.19
2022-08-26T03:44:21.099Z,81.69
2022-08-26T03:46:47.600Z,82.53
2022-08-26T03:49:15.209Z,82.19
2022-08-26T03:51:42.167Z,82.75
2022-08-26T03:54:09.227Z,83.34
2022-08-26T03:56:36.645Z,84.32
2022-08-26T03:59:04.279Z,82.62
2022-08-26T04:01:31.335Z,83.45
2022-08-26T04:04:00.291Z,83.44
2022-08-26T04:06:30.598Z,84.55
2022-08-26T04:08:59.945Z,85.29
2022-08-26T04:11:32.126Z,84.02
2022-08-26T04:14:03.880Z,83.35
2022-08-26T04:16:30.626Z,85.00
2022-08-26T04:18:58.013Z,84.51
2022-08-26T04:21:25.916Z,85.13
2022-08-26T04:23:53.972Z,84.98
2022-08-26T04:26:22.144Z,85.17
2022-08-26T04:28:49.973Z,85.10
2022-08-26T04:31:18.112Z,85.52
2022-08-26T04:33:47.550Z,85.51
2022-08-26T04:36:17.435Z,84.41
2022-08-26T04:38:46.352Z,85.37
2022-08-26T04:41:15.446Z,85.10
2022-08-26T04:43:43.491Z,84.48
2022-08-26T04:46:13.024Z,84.84
2022-08-26T04:48:41.300Z,85.48
2022-08-26T04:51:09.787Z,84.67
2022-08-26T04:53:36.994Z,84.20
2022-08-26T04:56:04.524Z,84.59
2022-08-26T04:58:31.866Z,83.93
2022-08-26T05:00:58.528Z,84.42
2022-08-26T05:03:30.291Z,84.75
2022-08-26T05:05:58.007Z,85.02
2022-08-26T05:08:24.576Z,84.34
2022-08-26T05:10:56.725Z,84.35
2022-08-26T05:13:27.431Z,84.52
2022-08-26T05:15:54.337Z,83.50
2022-08-26T05:18:23.454Z,83.38
2022-08-26T05:20:54.557Z,82.96
2022-08-26T05:23:23.198Z,82.48
2022-08-26T05:25:55.834Z,82.25
2022-08-26T05:28:26.287Z,82.05
2022-08-26T05:30:52.885Z,81.78
2022-08-26T05:33:19.659Z,81.58
2022-08-26T05:35:46.728Z,81.03
2022-08-26T05:38:17.414Z,80.83
2022-08-26T05:40:47.135Z,80.84
2022-08-26T05:43:14.373Z,80.85
2022-08-26T05:45:46.261Z,78.30
2022-08-26T05:48:14.542Z,77.62
2022-08-26T05:50:47.309Z,78.57
2022-08-26T05:53:16.416Z,77.97
2022-08-26T05:55:47.898Z,76.67
2022-08-26T05:58:15.008Z,76.04
2022-08-26T06:00:44.585Z,75.29
2022-08-26T06:03:11.231Z,73.75
2022-08-26T06:05:41.647Z,73.93
2022-08-26T06:08:11.526Z,72.57
2022-08-26T06:10:50.939Z,73.78
2022-08-26T06:13:21.341Z,74.10
2022-08-26T06:15:50.160Z,74.68
2022-08-26T06:18:20.220Z,75.05
2022-08-26T06:20:54.614Z,74.42
2022-08-26T06:23:42.669Z,73.32
2022-08-26T06:26:11.056Z,71.83
2022-08-26T06:28:37.792Z,72.62
2022-08-26T06:31:04.507Z,73.16
2022-08-26T06:33:32.411Z,72.55
2022-08-26T06:35:58.983Z,72.54
2022-08-26T06:38:25.428Z,72.23
2022-08-26T06:40:54.859Z,72.54
2022-08-26T06:43:23.790Z,72.18
2022-08-26T06:45:51.275Z,71.93
2022-08-26T06:48:20.864Z,71.10
2022-08-26T06:50:48.231Z,70.33
2022-08-26T06:53:17.132Z,71.30
2022-08-26T06:55:46.111Z,71.57
2022-08-26T06:58:14.184Z,71.33
2022-08-26T07:00:41.689Z,72.50
2022-08-26T07:03:14.101Z,72.51
2022-08-26T07:05:40.713Z,73.17
2022-08-26T07:08:07.156Z,72.64
2022-08-26T07:10:35.549Z,72.60
2022-08-26T07:13:02.571Z,72.58
2022-08-26T07:15:31.365Z,72.58
2022-08-26T07:17:58.116Z,72.52
2022-08-26T07:20:24.596Z,71.86
2022-08-26T07:22:51.452Z,71.87
2022-08-26T07:25:19.298Z,70.69
2022-08-26T07:27:46.796Z,70.66
2022-08-26T07:30:20.770Z,69.70
2022-08-26T07:32:47.472Z,69.70
2022-08-26T07:35:14.640Z,69.78
2022-08-26T07:37:42.399Z,69.61
2022-08-26T07:40:09.837Z,68.91
2022-08-26T07:42:36.337Z,69.23
2022-08-26T07:45:02.955Z,67.99
2022-08-26T07:47:31.469Z,66.76
2022-08-26T07:49:58.813Z,66.28
2022-08-26T07:52:29.001Z,63.99
2022-08-26T07:55:01.031Z,63.68
2022-08-26T07:57:28.672Z,64.87
2022-08-26T07:59:55.787Z,65.77
2022-08-26T08:02:23.327Z,65.88
2022-08-26T08:04:49.858Z,65.55
2022-08-26T08:07:16.540Z,64.64
2022-08-26T08:09:43.015Z,65.29
2022-08-26T08:12:09.517Z,64.37
2022-08-26T08:14:41.015Z,64.72
2022-08-26T08:17:08.457Z,62.97
2022-08-26T08:19:36.710Z,63.00
2022-08-26T08:22:05.161Z,62.83
2022-08-26T08:24:43.784Z,61.90
2022-08-26T08:27:10.697Z,62.31
2022-08-26T08:29:37.508Z,62.56
2022-08-26T08:32:04.966Z,62.88
2022-08-26T08:34:31.531Z,62.62
2022-08-26T08:36:58.302Z,63.59
2022-08-26T08:39:26.012Z,62.47
2022-08-26T08:42:32.383Z,62.61
2022-08-26T08:45:06.271Z,63.10
2022-08-26T08:47:38.748Z,63.56
2022-08-26T08:50:17.403Z,63.35
2022-08-26T08:52:49.366Z,62.23
2022-08-26T08:55:18.267Z,62.11
2022-08-26T08:58:02.181Z,62.14
2022-08-26T09:00:39.683Z,61.37
2022-08-26T09:03:17.065Z,61.16
2022-08-26T09:05:48.780Z,61.39
2022-08-26T09:08:21.595Z,61.16
2022-08-26T09:10:53.943Z,60.82
2022-08-26T09:13:25.362Z,61.09
2022-08-26T09:16:31.276Z,60.65
2022-08-26T09:19:22.712Z,59.21
2022-08-26T09:22:00.250Z,58.23
2022-08-26T09:24:29.387Z,58.85
2022-08-26T09:26:58.186Z,57.47
2022-08-26T09:29:27.772Z,57.35
2022-08-26T09:32:22.056Z,57.65
2022-08-26T09:35:01.137Z,56.66
2022-08-26T09:40:59.168Z,54.59
2022-08-26T09:43:28.398Z,55.75
2022-08-26T09:46:12.442Z,55.09
2022-08-26T09:48:40.580Z,56.34
2022-08-26T09:51:28.082Z,57.59
2022-08-26T09:54:00.660Z,56.68
2022-08-26T09:56:34.634Z,54.23
2022-08-26T09:59:02.187Z,55.26
2022-08-26T10:01:32.148Z,54.71
2022-08-26T10:04:07.334Z,54.39
2022-08-26T10:06:39.187Z,53.12
2022-08-26T10:09:09.684Z,52.75
2022-08-26T10:11:44.425Z,50.48
2022-08-26T10:14:17.467Z,52.33
2022-08-26T10:17:08.920Z,51.86
2022-08-26T10:19:41.627Z,50.11
2022-08-26T10:22:49.064Z,49.33
2022-08-26T10:25:23.061Z,47.84
2022-08-26T10:28:11.890Z,48.14
2022-08-26T10:30:46.916Z,49.57
2022-08-26T10:33:15.453Z,50.49
2022-08-26T10:35:56.735Z,49.06
2022-08-26T10:38:34.283Z,47.31
2022-08-26T10:41:13.688Z,48.48
2022-08-26T10:43:50.484Z,45.94
2022-08-26T10:46:22.436Z,44.24
2022-08-26T10:49:00.021Z,43.89
2022-08-26T10:51:36.495Z,45.40
2022-08-26T10:54:50.844Z,44.89
2022-08-26T10:57:25.309Z,44.53
2022-08-26T11:00:22.813Z,44.92
2022-08-26T11:02:55.080Z,45.23
2022-08-26T11:05:23.609Z,47.11
2022-08-26T11:08:13.587Z,43.90
2022-08-26T11:10:53.577Z,45.68
2022-08-26T11:13:20.020Z,45.09
2022-08-26T11:15:58.603Z,45.64
2022-08-26T11:18:40.326Z,47.27
2022-08-26T11:21:44.950Z,46.88
2022-08-26T11:24:40.631Z,47.16
2022-08-26T11:27:12.175Z,47.33
2022-08-26T11:29:56.385Z,46.88
2022-08-26T11:32:34.916Z,46.88
2022-08-26T11:35:06.743Z,46.48
2022-08-26T11:37:41.225Z,47.65
2022-08-26T11:40:12.255Z,46.62
2022-08-26T11:42:49.918Z,45.18
2022-08-26T11:45:24.332Z,44.81
2022-08-26T11:47:51.207Z,42.54
2022-08-26T11:50:26.784Z,43.37
2022-08-26T11:53:04.726Z,41.81
2022-08-26T11:55:37.151Z,40.37
2022-08-26T11:58:05.077Z,41.34
2022-08-26T12:00:52.411Z,39.96
2022-08-26T12:03:22.995Z,43.85
2022-08-26T12:05:52.022Z,43.91
2022-08-26T12:08:23.412Z,43.31
2022-08-26T12:11:10.044Z,42.07
2022-08-26T12:13:39.091Z,38.83
2022-08-26T12:16:06.624Z,39.04
2022-08-26T12:18:37.521Z,38.64
2022-08-26T12:21:16.178Z,39.29
2022-08-26T12:23:47.980Z,38.74
2022-08-26T12:26:21.559Z,40.11
2022-08-26T12:29:26.754Z,40.48
2022-08-26T12:32:11.083Z,40.75
2022-08-26T12:34:37.869Z,41.54
2022-08-26T12:37:04.556Z,41.66
2022-08-26T12:39:37.595Z,42.80
2022-08-26T12:42:07.788Z,38.48
2022-08-26T12:44:54.313Z,41.20
2022-08-26T12:47:35.133Z,40.63
2022-08-26T12:50:33.488Z,39.72
2022-08-26T12:53:01.428Z,39.75
2022-08-26T12:55:39.395Z,41.06
2022-08-26T12:58:13.473Z,40.81
2022-08-26T13:00:41.780Z,40.51
2022-08-26T13:03:28.432Z,41.12
2022-08-26T13:06:15.688Z,41.67
2022-08-26T13:08:48.297Z,41.91
2022-08-26T13:11:21.219Z,42.26
2022-08-26T13:14:23.680Z,43.29
2022-08-26T13:16:51.418Z,40.10
2022-08-26T13:19:25.519Z,41.01
2022-08-26T13:22:01.494Z,40.59
2022-08-26T13:24:34.451Z,39.40
2022-08-26T13:27:02.120Z,41.15
2022-08-26T13:29:28.713Z,38.77
2022-08-26T13:31:55.513Z,41.90
2022-08-26T13:34:23.365Z,43.09
2022-08-26T13:36:54.031Z,42.12
2022-08-26T13:39:21.630Z,39.01
2022-08-26T13:41:48.250Z,40.48
2022-08-26T13:44:14.780Z,39.48
2022-08-26T13:46:41.773Z,40.83
2022-08-26T13:49:09.156Z,38.41
2022-08-26T13:51:37.616Z,36.28
2022-08-26T13:54:05.124Z,37.92
2022-08-26T13:56:32.722Z,37.47
2022-08-26T13:59:01.128Z,37.79
2022-08-26T14:01:29.345Z,37.43
2022-08-26T14:03:55.824Z,39.47
2022-08-26T14:06:22.356Z,38.27
2022-08-26T14:08:49.373Z,38.37
2022-08-26T14:11:15.840Z,38.80
2022-08-26T14:13:42.308Z,38.77
2022-08-26T14:16:13.378Z,38.82
2022-08-26T14:18:43.048Z,39.69
2022-08-26T14:21:13.387Z,39.94
2022-08-26T14:23:40.206Z,39.53
2022-08-26T14:26:11.002Z,41.98
2022-08-26T14:28:55.181Z,43.12
2022-08-26T14:31:24.175Z,40.02
2022-08-26T14:33:50.780Z,39.02
2022-08-26T14:36:29.108Z,40.45
2022-08-26T14:39:00.104Z,41.04
2022-08-26T14:41:27.109Z,40.67
2022-08-26T14:44:00.376Z,36.64
2022-08-26T14:46:30.183Z,38.07
2022-08-26T14:49:01.477Z,36.23
2022-08-26T14:51:28.501Z,37.49
2022-08-26T14:54:13.114Z,34.95
2022-08-26T14:56:44.791Z,35.50
2022-08-26T14:59:13.552Z,36.52
2022-08-26T15:01:40.086Z,33.93
2022-08-26T15:04:06.887Z,34.35
2022-08-26T15:06:34.753Z,34.34
2022-08-26T15:09:01.482Z,35.30
2022-08-26T15:11:27.952Z,36.56
2022-08-26T15:13:54.585Z,35.75
2022-08-26T15:16:22.658Z,35.77
2022-08-26T15:18:51.214Z,36.70
2022-08-26T15:21:19.364Z,37.21
2022-08-26T15:23:48.014Z,35.39
2022-08-26T15:26:15.540Z,37.55
2022-08-26T15:28:42.228Z,34.36
2022-08-26T15:31:09.349Z,36.25
2022-08-26T15:33:37.735Z,35.91
2022-08-26T15:36:05.754Z,35.54
2022-08-26T15:38:35.407Z,35.81
2022-08-26T15:41:04.308Z,37.52
2022-08-26T15:43:30.799Z,37.01
2022-08-26T15:45:57.781Z,35.59
2022-08-26T15:48:24.603Z,37.49
2022-08-26T15:50:53.812Z,37.75
2022-08-26T15:53:21.921Z,37.91
2022-08-26T15:55:48.599Z,39.48
2022-08-26T15:58:16.892Z,40.96
2022-08-26T16:00:44.218Z,41.88
2022-08-26T16:03:10.657Z,44.54
2022-08-26T16:05:41.634Z,42.41
2022-08-26T16:08:08.244Z,43.13
2022-08-26T16:10:37.052Z,43.71
2022-08-26T16:13:04.412Z,44.31
2022-08-26T16:15:34.375Z,45.67
2022-08-26T16:18:02.288Z,45.12
2022-08-26T16:20:30.071Z,45.56
2022-08-26T16:22:56.563Z,44.34
2022-08-26T16:25:23.097Z,44.67
2022-08-26T16:27:49.577Z,45.96
2022-08-26T16:30:16.444Z,45.70
2022-08-26T16:32:42.890Z,44.64
2022-08-26T16:35:09.579Z,45.68
2022-08-26T16:37:37.760Z,45.07
2022-08-26T16:40:07.185Z,46.80
2022-08-26T16:42:33.657Z,47.01
2022-08-26T16:45:00.142Z,46.54
2022-08-26T16:47:27.059Z,47.37
2022-08-26T16:49:53.643Z,47.15
2022-08-26T16:52:20.248Z,48.17
2022-08-26T16:54:47.838Z,48.62
2022-08-26T16:57:14.295Z,47.65
2022-08-26T16:59:41.729Z,47.25
2022-08-26T17:02:08.532Z,47.26
2022-08-26T17:04:34.990Z,48.37
2022-08-26T17:07:01.447Z,48.74
2022-08-26T17:09:27.984Z,49.70
2022-08-26T17:11:54.691Z,49.69
2022-08-26T17:14:21.447Z,49.47
2022-08-26T17:16:51.128Z,50.41
2022-08-26T17:19:19.351Z,48.47
2022-08-26T17:21:46.929Z,50.17
2022-08-26T17:24:13.997Z,53.14
2022-08-26T17:26:44.184Z,53.84
2022-08-26T17:29:14.922Z,54.30
2022-08-26T17:31:41.495Z,54.18
2022-08-26T17:34:10.004Z,55.04
2022-08-26T17:36:36.432Z,55.56
2022-08-26T17:39:03.501Z,55.99
2022-08-26T17:41:30.495Z,56.94
2022-08-26T17:43:57.149Z,58.22
2022-08-26T17:46:24.517Z,58.62
2022-08-26T17:48:51.085Z,58.64
2022-08-26T17:51:19.444Z,58.98
2022-08-26T17:53:46.732Z,59.79
2022-08-26T17:56:16.232Z,59.47
2022-08-26T17:58:50.928Z,59.39
2022-08-26T18:01:18.080Z,59.95
2022-08-26T18:03:44.543Z,60.70
2022-08-26T18:06:12.975Z,61.83
2022-08-26T18:08:40.706Z,62.30
2022-08-26T18:11:12.069Z,63.19
2022-08-26T18:13:45.837Z,63.55
2022-08-26T18:16:15.099Z,64.04
2022-08-26T18:18:42.218Z,64.68
2022-08-26T18:21:18.097Z,64.20
2022-08-26T18:23:45.989Z,63.14
2022-08-26T18:26:21.596Z,62.47
2022-08-26T18:28:48.373Z,62.93
2022-08-26T18:31:15.383Z,63.07
2022-08-26T18:33:43.040Z,63.79
2022-08-26T18:36:24.699Z,65.51
2022-08-26T18:38:52.104Z,67.14
2022-08-26T18:41:20.989Z,66.19
2022-08-26T18:43:50.348Z,67.94
2022-08-26T18:46:18.055Z,68.63
2022-08-26T18:48:44.589Z,68.38
2022-08-26T18:51:20.672Z,68.87
2022-08-26T18:53:47.573Z,69.50
2022-08-26T18:56:16.651Z,69.85
2022-08-26T18:58:45.191Z,69.84
2022-08-26T19:01:13.107Z,69.93
2022-08-26T19:03:39.796Z,70.47
2022-08-26T19:06:06.672Z,70.73
2022-08-26T19:08:33.086Z,70.92
2022-08-26T19:11:00.033Z,70.46
2022-08-26T19:13:26.651Z,69.92
2022-08-26T19:15:53.060Z,70.13
2022-08-26T19:18:19.903Z,70.83
2022-08-26T19:20:47.862Z,71.31
2022-08-26T19:23:30.813Z,71.55
2022-08-26T19:25:58.501Z,71.90
2022-08-26T19:28:24.958Z,71.72
2022-08-26T19:30:53.363Z,71.99
2022-08-26T19:33:20.104Z,72.04
2022-08-26T19:35:46.575Z,70.48
2022-08-26T19:38:13.992Z,71.52
2022-08-26T19:40:40.470Z,72.66
2022-08-26T19:43:07.157Z,71.31
2022-08-26T19:45:34.529Z,72.22
2022-08-26T19:48:01.104Z,72.26
2022-08-26T19:50:30.174Z,71.63
2022-08-26T19:52:57.391Z,72.13
2022-08-26T19:55:24.689Z,72.26
2022-08-26T19:57:52.358Z,71.57
2022-08-26T20:00:23.783Z,72.80
2022-08-26T20:02:51.047Z,73.07
2022-08-26T20:05:20.414Z,72.09
2022-08-26T20:07:48.122Z,72.62
2022-08-26T20:10:16.835Z,72.77
2022-08-26T20:12:43.489Z,72.72
2022-08-26T20:15:12.098Z,71.89
2022-08-26T20:17:39.260Z,71.16
2022-08-26T20:20:33.446Z,70.67
2022-08-26T20:23:01.335Z,71.50
2022-08-26T20:25:28.352Z,70.91
2022-08-26T20:27:54.823Z,70.10
2022-08-26T20:30:21.318Z,70.00
2022-08-26T20:32:48.366Z,70.44
2022-08-26T20:35:15.149Z,70.67
2022-08-26T20:37:42.852Z,69.85
2022-08-26T20:40:12.579Z,68.79
2022-08-26T20:42:39.095Z,68.75
2022-08-26T20:45:07.120Z,68.29
2022-08-26T20:47:33.743Z,67.94
2022-08-26T20:50:00.219Z,68.21
2022-08-26T20:52:26.640Z,68.28
2022-08-26T20:54:53.048Z,69.94
2022-08-26T20:57:19.544Z,71.05
2022-08-26T20:59:45.987Z,72.92
2022-08-26T21:02:12.423Z,73.62
2022-08-26T21:04:38.952Z,74.02
2022-08-26T21:07:05.545Z,74.86
2022-08-26T21:09:32.455Z,75.06
2022-08-26T21:11:59.176Z,75.08
2022-08-26T21:14:26.139Z,75.07
2022-08-26T21:16:52.932Z,75.22
2022-08-26T21:19:19.512Z,74.49
2022-08-26T21:21:47.977Z,74.63
2022-08-26T21:24:14.563Z,74.64
2022-08-26T21:26:41.463Z,76.02
2022-08-26T21:29:09.733Z,77.98
2022-08-26T21:31:39.975Z,78.29
2022-08-26T21:34:09.063Z,81.77
2022-08-26T21:36:35.949Z,81.97
2022-08-26T21:39:02.433Z,79.64
2022-08-26T21:41:28.876Z,83.94
2022-08-26T21:43:59.146Z,88.26
2022-08-26T21:46:29.025Z,87.38
2022-08-26T21:48:56.829Z,88.29
2022-08-26T21:51:25.700Z,89.57
2022-08-26T21:53:52.992Z,89.48
2022-08-26T21:56:20.696Z,90.05
2022-08-26T21:58:47.250Z,88.14
2022-08-26T22:01:17.716Z,90.35
2022-08-26T22:03:47.623Z,91.14
2022-08-26T22:06:19.591Z,93.29
2022-08-26T22:08:46.095Z,94.50
2022-08-26T22:11:13.217Z,97.78
2022-08-26T22:13:41.548Z,99.95
2022-08-26T22:16:08.699Z,100.00
2022-08-26T22:18:36.056Z,100.00
2022-08-26T22:21:06.524Z,100.00
2022-08-26T22:23:32.996Z,100.00
2022-08-26T22:26:00.013Z,100.00
2022-08-26T22:28:28.136Z,100.00
2022-08-26T22:30:55.628Z,100.00
2022-08-26T22:33:22.908Z,100.00
2022-08-26T22:35:51.914Z,100.00
2022-08-26T22:38:19.117Z,100.00
2022-08-26T22:40:50.817Z,100.00
2022-08-26T22:43:18.878Z,100.00
2022-08-26T22:45:47.316Z,100.00
2022-08-26T22:48:16.771Z,100.00
2022-08-26T22:50:45.756Z,100.00
2022-08-26T22:53:12.908Z,100.00
2022-08-26T22:55:39.398Z,100.00
2022-08-26T22:58:06.244Z,100.00
2022-08-26T23:00:34.223Z,100.00
2022-08-26T23:03:02.134Z,100.00
2022-08-26T23:05:29.511Z,100.00
2022-08-26T23:07:56.736Z,100.00
2022-08-26T23:10:23.333Z,100.00
2022-08-26T23:12:50.494Z,100.00
2022-08-26T23:15:16.905Z,100.00
2022-08-26T23:17:44.956Z,100.00
2022-08-26T23:20:13.514Z,100.00
2022-08-26T23:22:40.263Z,100.00
2022-08-26T23:25:09.696Z,100.00
2022-08-26T23:27:39.255Z,100.00
2022-08-26T23:30:15.237Z,100.00
2022-08-26T23:32:41.780Z,100.00
2022-08-26T23:35:09.340Z,100.00
2022-08-26T23:37:42.588Z,100.00
2022-08-26T23:40:17.075Z,100.00
2022-08-26T23:42:44.278Z,100.00
2022-08-26T23:45:12.815Z,100.00
2022-08-26T23:47:40.865Z,100.00
2022-08-26T23:50:08.604Z,100.00
2022-08-26T23:52:53.910Z,100.00
2022-08-26T23:55:20.525Z,100.00
2022-08-26T23:57:46.948Z,100.00
